This is the latest recevied weather packets stored in our database for station/object OK2ZAW-23. If no packets are shown the sender has not sent any weather packets the latest 1 day(s).
| Time | Temp. | Humidity | Pressure | Rain* | Wind** | Luminosity | Snow |
|---|---|---|---|---|---|---|---|
| 1778114326 | 11.11° C | 10% | - | - | - | - | - |
| 1778114013 | 11.11° C | 10% | - | - | - | - | - |
| 1778109626 | 11.67° C | 10% | - | - | - | - | - |
| 1778108999 | 11.67° C | 98% | 1003.4 hPa | - | - | 335 W/m² | - |
| 1778106492 | 12.22° C | 93% | 1003.1 hPa | - | - | 335 W/m² | - |
| 1778105865 | 12.78° C | 91% | 1003.1 hPa | - | - | 335 W/m² | - |
| 1778104611 | 13.89° C | 88% | 1003.4 hPa | - | - | 335 W/m² | - |
| 1778103984 | 14.44° C | 80% | 1003.1 hPa | - | - | 335 W/m² | - |
| 1778101161 | 15° C | 65% | 1001.8 hPa | - | - | 335 W/m² | - |
| 1778099906 | 15° C | 65% | 1001.8 hPa | - | - | 336 W/m² | - |
| 1778096769 | 15.56° C | 69% | 1001.9 hPa | - | - | 335 W/m² | - |
| 1778095514 | 16.67° C | 54% | 1001.7 hPa | - | - | 336 W/m² | - |
| 1778095200 | 17.22° C | 53% | 1001.6 hPa | - | - | 335 W/m² | - |
| 1778094886 | 17.22° C | 53% | 1001.6 hPa | - | - | 336 W/m² | - |
| 1778090805 | 19.44° C | 41% | 1001 hPa | - | - | 336 W/m² | - |
| 1778089862 | 21.11° C | 38% | 1001 hPa | - | - | 336 W/m² | - |
| 1778088290 | 23.89° C | 33% | 1001 hPa | - | - | 336 W/m² | - |
| 1778086400 | 31.67° C | 26% | 1000.8 hPa | - | - | 336 W/m² | - |
| 1778084192 | 31.67° C | 26% | 1001.3 hPa | - | - | 336 W/m² | - |
| 1778083561 | 33.33° C | 25% | 1001.4 hPa | - | - | 336 W/m² | - |
| 1778082930 | 32.78° C | 25% | 1001.4 hPa | - | - | 336 W/m² | - |
| 1778082615 | 32.78° C | 26% | 1001.4 hPa | - | - | 336 W/m² | - |
| 1778081668 | 31.11° C | 28% | 1001.6 hPa | - | - | 336 W/m² | - |
| 1778080092 | 26.11° C | 34% | 1002.1 hPa | - | - | 336 W/m² | - |
| 1778077888 | 25.56° C | 36% | 1002.5 hPa | - | - | 336 W/m² | - |
* Rain since midnight (hover to see other rain measurements)
** Current wind speed in m/s (hover to see current wind gust speed)